Skagway, AK

12:39 AM AKST on February 25, 2017 (GMT -0900)
Skagway | | Change Station

Elev 43 ft 59.46 °N, 135.32 °W | Updated 6 minutes ago

Light Snow
Light Snow
35 °F
Feels Like 27 °F
N
10
Wind Variable Wind from SSW

Today
High -- | Low -- °F
--% Chance of Precip.
Yesterday
High -- | Low -- °F
Precip. -- in
Pressure 30.17 in
Visibility 1.0 miles
Clouds Mostly Cloudy 1300 ft
Overcast 2300 ft
Windchill 27 °F
Dew Point 29 °F
Humidity 78%
Rainfall 0.00 in
Snow Depth Not available.
7:08 AM 5:20 PM
Waning Crescent, 2% visible
SPECI PAGY 250933Z AUTO 20009KT 1SM -SN BKN013 OVC023 02/M02 A3017 RMK AO2 SNB15 P0000 T00171017 TSNO
Pressure 30.17 in
Visibility 1.0 miles
Clouds Mostly Cloudy 1300 ft
Overcast 2300 ft
Windchill 27 °F
Dew Point 29 °F
Humidity 78%
Rainfall 0.00 in
Snow Depth Not available.
7:08 AM 5:20 PM
Waning Crescent, 2% visible
SPECI PAGY 250933Z AUTO 20009KT 1SM -SN BKN013 OVC023 02/M02 A3017 RMK AO2 SNB15 P0000 T00171017 TSNO

Get Your Daily Forecast Email!

Thanks for signing up!

Be on the lookout for a verification email in your inbox.

You'll start receiving the daily forecast at 8 AM.

×

10-Day Weather Forecast

Almanac

Astronomy

Feb. 25, 2017 Rise Set
Actual Time
Civil Twilight
Nautical Twilight
Astronomical Twilight
Moon
Length of Visible Light
Length of Day
Tomorrow will be .
, % of the Moon is Illuminated

Today's Extremes

State Highs State Lows

Community

WunderPhotos

Upload Photos

1,962,540 photos uploaded!

WunderBlog® & News

Nearby

Air Quality

  Air Quality AQ Index Pollutant
Not available.

Snow Depth

Station Depth Elevation

Earthquake Activity

City Distance Mag. Time & Date
Minimum magnitude displayed is 2.5.

Coastal Water Temperatures

Place Temperature

Stations

Nearby Weather Stations

Station Location Temp. Windchill Dew Point Humidity Wind Precip. Elev Updated Type
                   

Watches & Warnings

There are currently no watches in effect.